createdAt,value
2019-05-31T00:50:35.746Z,4.00
2019-05-31T00:51:33.808Z,4.20
2019-05-31T00:52:33.774Z,3.90
2019-05-31T00:53:33.751Z,3.70
2019-05-31T00:54:33.722Z,5.10
2019-05-31T00:55:33.696Z,5.40
2019-05-31T00:56:33.663Z,6.90
2019-05-31T00:57:33.640Z,5.70
2019-05-31T00:58:33.610Z,3.80
2019-05-31T00:59:33.581Z,4.50
2019-05-31T01:00:33.560Z,4.40
2019-05-31T01:01:33.539Z,6.10
2019-05-31T01:02:33.501Z,4.80
2019-05-31T01:03:33.485Z,4.50
2019-05-31T01:04:33.450Z,4.10
2019-05-31T01:05:33.434Z,4.10
2019-05-31T01:12:57.599Z,3.70
2019-05-31T01:13:54.040Z,5.00
2019-05-31T01:14:54.017Z,7.20
2019-05-31T01:15:54.043Z,4.90
2019-05-31T01:16:53.953Z,6.50
2019-05-31T01:17:54.056Z,9.10
2019-05-31T01:18:53.911Z,6.50
2019-05-31T01:19:53.969Z,5.70
2019-05-31T01:20:53.848Z,9.30
2019-05-31T01:21:53.877Z,6.70
2019-05-31T01:22:53.798Z,6.30
2019-05-31T01:23:53.886Z,5.00
2019-05-31T01:24:53.745Z,4.90
2019-05-31T01:25:53.808Z,5.60
2019-05-31T01:26:53.694Z,6.20
2019-05-31T01:27:53.821Z,5.30
2019-05-31T01:28:53.639Z,4.50
2019-05-31T01:29:53.727Z,4.90
2019-05-31T01:30:53.595Z,4.60
2019-05-31T01:31:53.660Z,6.40
2019-05-31T01:32:53.528Z,3.90
2019-05-31T01:33:53.654Z,4.00
2019-05-31T01:34:53.481Z,6.10
2019-05-31T01:35:53.563Z,4.10
2019-05-31T01:36:53.424Z,5.90
2019-05-31T01:37:53.474Z,5.10
2019-05-31T01:38:53.384Z,4.80
2019-05-31T01:39:53.489Z,5.30
2019-05-31T01:40:53.307Z,4.50
2019-05-31T01:41:53.402Z,4.80
2019-05-31T01:42:53.263Z,7.30
2019-05-31T01:43:53.323Z,5.60
2019-05-31T01:45:07.835Z,5.10
2019-05-31T01:45:53.322Z,5.10
2019-05-31T01:46:53.145Z,6.00
2019-05-31T01:47:53.240Z,6.50
2019-05-31T01:48:53.096Z,6.90
2019-05-31T01:49:53.156Z,8.00
2019-05-31T01:50:53.035Z,7.20
2019-05-31T01:51:53.166Z,6.40
2019-05-31T01:52:52.979Z,8.80
2019-05-31T01:53:53.076Z,6.30
2019-05-31T01:54:52.938Z,6.70
2019-05-31T01:55:52.991Z,5.10
2019-05-31T01:56:52.891Z,6.30
2019-05-31T01:57:53.005Z,5.00
2019-05-31T01:58:52.818Z,3.90
2019-05-31T01:59:52.987Z,5.20
2019-05-31T02:00:52.767Z,4.80
2019-05-31T02:01:53.846Z,3.70
2019-05-31T02:02:52.712Z,3.60
2019-05-31T02:03:52.844Z,3.80
2019-05-31T02:04:52.657Z,3.80
2019-05-31T02:05:52.747Z,3.30
2019-05-31T02:06:52.620Z,3.50
2019-05-31T02:07:52.660Z,4.60
2019-05-31T02:08:52.548Z,4.10
2019-05-31T02:09:52.673Z,4.50
2019-05-31T02:10:52.499Z,4.00
2019-05-31T02:11:52.588Z,3.90
2019-05-31T02:12:52.448Z,5.60
2019-05-31T02:13:52.497Z,3.80
2019-05-31T02:14:52.390Z,5.30
2019-05-31T02:15:52.568Z,3.40
2019-05-31T02:16:52.326Z,4.10
2019-05-31T02:17:52.493Z,5.10
2019-05-31T02:18:52.312Z,4.20
2019-05-31T02:19:52.386Z,3.40
2019-05-31T02:20:52.221Z,5.10
2019-05-31T02:21:52.399Z,4.10
2019-05-31T02:22:52.165Z,4.00
2019-05-31T02:23:52.307Z,3.20
2019-05-31T02:24:52.120Z,3.10
2019-05-31T02:25:52.225Z,3.40
2019-05-31T02:26:52.061Z,3.30
2019-05-31T02:27:52.234Z,3.60
2019-05-31T02:28:52.005Z,3.10
2019-05-31T02:29:52.042Z,3.00
2019-05-31T02:30:51.963Z,3.50
2019-05-31T02:31:51.959Z,4.60
2019-05-31T02:32:51.904Z,4.10
2019-05-31T02:33:51.972Z,3.00
2019-05-31T02:34:51.862Z,3.80
2019-05-31T02:35:51.877Z,3.20
2019-05-31T02:36:51.824Z,3.70
2019-05-31T02:37:51.996Z,3.70
2019-05-31T02:38:51.736Z,3.30
2019-05-31T02:39:51.898Z,3.40
2019-05-31T02:40:51.686Z,3.90
2019-05-31T02:41:51.812Z,5.40
2019-05-31T02:42:51.650Z,3.70
2019-05-31T02:43:51.728Z,4.70
2019-05-31T02:44:51.571Z,5.00
2019-05-31T02:45:51.633Z,3.30
2019-05-31T02:46:51.522Z,3.40
2019-05-31T02:47:51.545Z,3.20
2019-05-31T02:48:51.482Z,4.10
2019-05-31T02:49:51.459Z,3.20
2019-05-31T02:50:51.401Z,3.40
2019-05-31T02:51:51.467Z,2.50
2019-05-31T02:52:51.357Z,3.10
2019-05-31T02:53:51.381Z,3.10
2019-05-31T02:54:51.312Z,3.10
2019-05-31T02:55:51.399Z,4.70
2019-05-31T02:56:51.239Z,3.10
2019-05-31T02:57:51.327Z,3.50
2019-05-31T02:58:51.213Z,6.50
2019-05-31T02:59:52.281Z,4.10
2019-05-31T03:00:51.235Z,3.80
2019-05-31T03:01:51.238Z,2.40
2019-05-31T03:02:51.089Z,3.40
2019-05-31T03:03:51.141Z,3.70
2019-05-31T03:04:51.027Z,3.70
2019-05-31T03:05:51.052Z,5.00
2019-05-31T03:06:50.984Z,4.80
2019-05-31T03:07:51.078Z,4.50
2019-05-31T03:08:50.919Z,3.20
2019-05-31T03:09:50.981Z,5.70
2019-05-31T03:10:50.863Z,2.90
2019-05-31T03:11:50.890Z,3.00
2019-05-31T03:12:50.829Z,3.60
2019-05-31T03:13:50.787Z,3.10
2019-05-31T03:14:50.811Z,2.60
2019-05-31T03:16:06.229Z,3.00
2019-05-31T03:16:50.706Z,6.20
2019-05-31T03:17:50.728Z,6.20
2019-05-31T03:18:50.658Z,3.40
2019-05-31T03:19:50.750Z,3.10
2019-05-31T03:20:50.754Z,3.10
2019-05-31T03:21:50.662Z,3.00
2019-05-31T03:22:50.535Z,3.40
2019-05-31T03:23:50.570Z,3.90
2019-05-31T03:24:50.492Z,3.70
2019-05-31T03:25:50.588Z,3.10
2019-05-31T03:26:50.424Z,4.20
2019-05-31T03:27:51.517Z,3.20
2019-05-31T03:28:50.380Z,4.40
2019-05-31T03:29:51.430Z,4.00
2019-05-31T03:30:50.375Z,3.00
2019-05-31T03:32:04.509Z,3.50
2019-05-31T03:32:50.270Z,3.40
2019-05-31T04:57:05.513Z,6.10
2019-05-31T04:58:05.346Z,5.20
2019-05-31T04:59:05.461Z,4.80
2019-05-31T05:00:05.340Z,5.10
2019-05-31T05:01:05.386Z,5.70
2019-05-31T05:02:05.254Z,4.00
2019-05-31T05:03:05.414Z,5.70
2019-05-31T05:04:05.194Z,4.30
2019-05-31T05:05:05.406Z,5.50
2019-05-31T05:06:05.135Z,4.60
2019-05-31T05:07:05.215Z,7.30
2019-05-31T05:08:05.085Z,4.40
2019-05-31T05:09:06.253Z,5.10
2019-05-31T05:10:05.025Z,5.00
2019-05-31T05:11:05.159Z,5.60
2019-05-31T05:12:04.972Z,9.20
2019-05-31T05:13:05.049Z,7.60
2019-05-31T05:14:04.917Z,4.40
2019-05-31T05:15:05.062Z,5.90
2019-05-31T05:16:04.863Z,4.60
2019-05-31T05:17:04.983Z,5.50
2019-05-31T05:18:04.810Z,5.80
2019-05-31T05:19:05.815Z,5.30
2019-05-31T05:20:04.753Z,6.50
2019-05-31T05:21:04.807Z,4.50
2019-05-31T05:22:04.698Z,6.10
2019-05-31T05:23:04.713Z,4.40
2019-05-31T05:24:04.644Z,5.10
2019-05-31T05:25:04.632Z,6.60
2019-05-31T05:26:04.583Z,4.10
2019-05-31T05:27:04.640Z,6.30
2019-05-31T05:28:04.554Z,4.60
2019-05-31T05:29:04.505Z,4.40
2019-05-31T05:30:04.664Z,5.90
2019-05-31T05:31:04.463Z,7.40
2019-05-31T05:32:04.573Z,6.30
2019-05-31T05:33:04.412Z,5.50
2019-05-31T05:34:04.586Z,5.10
2019-05-31T05:35:04.340Z,5.60
2019-05-31T05:36:04.510Z,6.70
2019-05-31T05:37:04.299Z,5.30
2019-05-31T05:38:04.408Z,3.80
2019-05-31T05:39:04.243Z,4.30
2019-05-31T05:40:04.423Z,11.20
2019-05-31T05:41:04.182Z,7.80
2019-05-31T05:42:04.328Z,5.00
2019-05-31T05:43:04.133Z,3.80
2019-05-31T05:44:04.244Z,7.20
2019-05-31T05:45:04.083Z,7.40
2019-05-31T05:46:04.250Z,4.40
2019-05-31T05:47:04.023Z,5.80
2019-05-31T05:48:04.162Z,3.90
2019-05-31T05:49:03.958Z,5.30
2019-05-31T05:50:04.073Z,4.60
2019-05-31T05:51:03.914Z,21.70
2019-05-31T05:52:03.898Z,6.80
2019-05-31T05:53:03.852Z,5.70
2019-05-31T05:54:03.848Z,5.50
2019-05-31T05:55:03.796Z,6.10
2019-05-31T05:56:03.774Z,6.70
2019-05-31T05:58:03.719Z,4.00
2019-05-31T05:59:10.486Z,4.70
2019-05-31T06:00:03.664Z,5.80
2019-05-31T06:10:54.433Z,6.80
2019-05-31T06:11:54.532Z,11.10
2019-05-31T06:13:50.792Z,10.30
2019-05-31T06:14:50.664Z,8.80
2019-05-31T06:15:50.618Z,11.00
2019-05-31T06:17:02.815Z,11.10
2019-05-31T06:18:00.687Z,11.80
2019-05-31T06:18:50.536Z,12.50
2019-05-31T06:19:50.560Z,14.20
2019-05-31T06:20:50.490Z,15.90
2019-05-31T06:21:50.571Z,15.90
2019-05-31T06:22:50.425Z,13.50
2019-05-31T06:23:50.474Z,12.80
2019-05-31T06:24:50.393Z,12.40
2019-05-31T06:25:50.337Z,10.70
2019-05-31T06:26:50.318Z,9.80
2019-05-31T06:27:50.307Z,9.20
2019-05-31T06:28:50.274Z,8.00
2019-05-31T06:29:52.912Z,7.10
2019-05-31T06:30:50.338Z,9.00
2019-05-31T06:31:50.190Z,8.70
2019-05-31T06:32:50.313Z,9.20
2019-05-31T06:33:50.130Z,7.90
2019-05-31T06:34:50.233Z,7.30
2019-05-31T06:35:50.083Z,7.80
2019-05-31T06:36:51.163Z,6.20
2019-05-31T06:37:53.204Z,7.40
2019-05-31T06:38:50.253Z,6.30
2019-05-31T06:39:49.977Z,7.30
2019-05-31T06:40:50.069Z,10.10
2019-05-31T06:41:49.919Z,13.00
2019-05-31T06:42:50.057Z,6.10
2019-05-31T06:43:49.866Z,18.50
2019-05-31T06:44:49.925Z,7.20
2019-05-31T06:45:49.807Z,9.10
2019-05-31T06:46:50.862Z,5.40
2019-05-31T06:47:49.779Z,7.80
2019-05-31T06:48:49.857Z,10.70
2019-05-31T06:49:49.695Z,6.30
2019-05-31T06:50:51.802Z,7.20
2019-05-31T06:51:49.663Z,8.00
2019-05-31T06:52:49.672Z,7.40
2019-05-31T06:53:49.605Z,8.80
2019-05-31T06:54:49.710Z,6.10
2019-05-31T06:55:50.297Z,7.80
2019-05-31T06:56:49.643Z,8.50
2019-05-31T06:57:49.598Z,8.00
2019-05-31T06:58:51.555Z,7.10
2019-05-31T06:59:49.426Z,5.10
2019-05-31T07:00:49.527Z,7.20
2019-05-31T07:01:49.386Z,6.00
2019-05-31T07:02:50.449Z,7.60
2019-05-31T07:03:49.318Z,5.40
2019-05-31T07:04:49.443Z,7.60
2019-05-31T07:05:56.599Z,6.20
2019-05-31T07:06:49.249Z,5.70
2019-05-31T07:07:49.369Z,5.10
2019-05-31T07:08:49.207Z,6.60
2019-05-31T07:09:50.376Z,8.10
2019-05-31T07:10:49.121Z,6.60
2019-05-31T07:11:51.104Z,5.70
2019-05-31T07:12:49.095Z,7.10
2019-05-31T07:13:53.195Z,5.10
2019-05-31T07:14:49.018Z,6.20
2019-05-31T07:15:56.016Z,7.10
2019-05-31T07:16:48.968Z,6.60
2019-05-31T07:17:57.951Z,6.30
2019-05-31T07:18:48.920Z,8.90
2019-05-31T07:19:48.991Z,7.20
2019-05-31T07:20:48.918Z,9.50
2019-05-31T07:21:48.897Z,7.10
2019-05-31T07:22:48.817Z,8.60
2019-05-31T07:23:55.363Z,6.50
2019-05-31T07:24:48.760Z,5.00
2019-05-31T07:25:49.739Z,5.90
2019-05-31T07:27:00.179Z,8.70
2019-05-31T07:27:48.684Z,5.30
2019-05-31T07:28:56.414Z,6.90
2019-05-31T07:29:48.639Z,7.40
2019-05-31T07:30:48.659Z,5.70
2019-05-31T07:31:50.830Z,6.40
2019-05-31T07:32:49.582Z,7.70
2019-05-31T07:33:48.521Z,7.40
2019-05-31T07:34:48.565Z,6.90
2019-05-31T07:35:48.462Z,7.00
2019-05-31T07:36:57.385Z,7.70
2019-05-31T07:37:48.412Z,7.50
2019-05-31T07:38:55.362Z,6.70
2019-05-31T07:39:48.345Z,7.20
2019-05-31T07:40:48.404Z,6.50
2019-05-31T07:41:48.331Z,7.20
2019-05-31T07:42:48.313Z,7.50
2019-05-31T07:43:48.236Z,5.20
2019-05-31T07:44:48.325Z,8.10
2019-05-31T07:45:48.186Z,8.50
2019-05-31T07:47:01.785Z,7.70
2019-05-31T07:47:48.133Z,7.40
2019-05-31T07:49:06.343Z,5.50
2019-05-31T07:49:48.078Z,7.20
2019-05-31T07:50:48.177Z,9.10
2019-05-31T07:51:48.036Z,8.80
2019-05-31T07:52:48.069Z,9.80
2019-05-31T07:53:47.973Z,12.70
2019-05-31T07:54:47.979Z,8.50
2019-05-31T07:55:47.927Z,9.20
2019-05-31T07:56:47.891Z,10.70
2019-05-31T07:57:47.861Z,10.00
2019-05-31T07:58:58.074Z,7.20
2019-05-31T07:59:49.006Z,10.60
2019-05-31T08:00:47.896Z,6.90
2019-05-31T08:01:47.770Z,10.50
2019-05-31T08:02:48.753Z,6.80
2019-05-31T08:03:47.732Z,7.60
2019-05-31T08:04:47.739Z,6.50
2019-05-31T08:05:47.653Z,5.20
2019-05-31T08:06:47.653Z,9.30
2019-05-31T08:07:47.623Z,8.20
2019-05-31T08:08:47.677Z,7.10
2019-05-31T08:09:47.538Z,7.90
2019-05-31T08:11:02.379Z,10.20
2019-05-31T08:11:47.489Z,5.90
2019-05-31T08:12:47.480Z,6.40
2019-05-31T08:13:47.450Z,7.00
2019-05-31T08:14:47.499Z,9.20
2019-05-31T08:15:47.380Z,6.10
2019-05-31T08:16:58.704Z,7.00
2019-05-31T08:17:53.430Z,6.50
2019-05-31T08:18:47.325Z,8.00
2019-05-31T08:19:47.293Z,6.20
2019-05-31T08:20:47.328Z,8.50
2019-05-31T08:21:47.282Z,8.00
2019-05-31T08:22:47.241Z,7.10
2019-05-31T08:23:47.204Z,5.40
2019-05-31T08:24:48.216Z,7.20
2019-05-31T08:25:47.123Z,6.20
2019-05-31T08:26:47.165Z,7.10
2019-05-31T08:27:47.066Z,8.60
2019-05-31T08:28:47.042Z,6.60
2019-05-31T08:29:47.981Z,8.70
2019-05-31T08:30:47.094Z,7.30
2019-05-31T08:31:46.953Z,7.80
2019-05-31T08:32:47.015Z,6.00
2019-05-31T08:33:46.903Z,8.60
2019-05-31T08:34:49.269Z,8.40
2019-05-31T08:35:46.849Z,7.00
2019-05-31T08:37:02.403Z,7.80
2019-05-31T08:37:46.793Z,6.50
2019-05-31T08:38:46.833Z,7.90
2019-05-31T08:39:46.745Z,7.40
2019-05-31T08:40:46.764Z,5.10
2019-05-31T08:41:46.702Z,9.10
2019-05-31T08:42:46.763Z,7.30
2019-05-31T08:43:46.648Z,6.10
2019-05-31T08:44:46.689Z,5.40
2019-05-31T08:45:46.584Z,7.20
2019-05-31T08:46:46.576Z,5.40
2019-05-31T08:47:47.541Z,8.10
2019-05-31T08:48:46.589Z,6.20
2019-05-31T08:49:49.101Z,7.70
2019-05-31T08:50:46.515Z,6.20
2019-05-31T08:51:46.813Z,7.10
2019-05-31T08:52:46.681Z,7.00
2019-05-31T08:53:46.389Z,6.40
2019-05-31T08:54:46.431Z,6.40
2019-05-31T08:55:46.312Z,7.80
2019-05-31T08:56:46.335Z,4.90
2019-05-31T08:57:46.263Z,10.00
2019-05-31T08:58:46.265Z,9.60
2019-05-31T08:59:46.207Z,7.80
2019-05-31T09:00:46.265Z,10.10
2019-05-31T09:01:46.158Z,7.50
2019-05-31T09:02:47.200Z,7.20
2019-05-31T09:03:46.112Z,7.60
2019-05-31T09:04:46.187Z,10.10
2019-05-31T09:05:46.052Z,6.70
2019-05-31T09:06:46.092Z,8.50
2019-05-31T09:07:46.013Z,10.10
2019-05-31T09:08:46.008Z,11.10
2019-05-31T09:09:45.949Z,7.90
2019-05-31T09:10:46.019Z,8.50
2019-05-31T09:11:45.895Z,9.30
2019-05-31T09:12:45.930Z,9.20
2019-05-31T09:13:45.842Z,7.90
2019-05-31T09:14:45.840Z,7.80
2019-05-31T09:15:45.787Z,8.60
2019-05-31T09:16:45.787Z,6.50
2019-05-31T09:17:45.737Z,8.70
2019-05-31T09:18:45.766Z,8.00
2019-05-31T09:19:58.734Z,7.90
2019-05-31T09:20:45.657Z,6.00
2019-05-31T09:21:45.679Z,10.70
2019-05-31T09:22:45.623Z,7.70
2019-05-31T09:23:45.697Z,9.30
2019-05-31T09:24:45.553Z,6.60
2019-05-31T09:25:45.605Z,7.30
2019-05-31T09:26:45.506Z,7.50
2019-05-31T09:27:55.471Z,7.30
2019-05-31T09:28:45.457Z,7.30
2019-05-31T09:30:17.305Z,7.20
2019-05-31T09:30:45.394Z,8.00
2019-05-31T09:31:45.436Z,9.30
2019-05-31T09:32:45.385Z,8.50
2019-05-31T09:33:46.369Z,6.70
2019-05-31T09:34:45.294Z,8.80
2019-05-31T09:35:45.363Z,9.40
2019-05-31T09:36:45.251Z,11.40
2019-05-31T09:37:45.289Z,6.90
2019-05-31T09:38:45.198Z,8.40
2019-05-31T09:39:45.538Z,8.00
2019-05-31T09:40:45.142Z,8.60
2019-05-31T09:41:45.193Z,8.90
2019-05-31T09:42:45.097Z,6.60
2019-05-31T09:43:45.112Z,7.60
2019-05-31T09:44:45.051Z,9.50
2019-05-31T09:45:45.125Z,8.50
2019-05-31T09:46:44.986Z,8.20
2019-05-31T09:47:45.028Z,6.00
2019-05-31T09:48:44.945Z,7.90
2019-05-31T09:49:44.940Z,7.80
2019-05-31T09:50:44.908Z,9.10
2019-05-31T09:51:44.953Z,10.10
2019-05-31T09:52:45.454Z,10.00
2019-05-31T09:53:44.865Z,8.30
2019-05-31T09:54:51.014Z,9.20
2019-05-31T09:55:45.889Z,6.80
2019-05-31T09:56:44.745Z,8.00
2019-05-31T09:57:47.529Z,7.30
2019-05-31T09:58:44.685Z,7.50
2019-05-31T09:59:44.718Z,8.60
2019-05-31T10:00:44.640Z,6.50
2019-05-31T10:01:44.720Z,6.50
2019-05-31T10:02:44.583Z,7.80
2019-05-31T10:03:44.635Z,7.80
2019-05-31T10:04:44.526Z,9.60
2019-05-31T10:05:44.534Z,7.20
2019-05-31T10:06:44.468Z,6.80
2019-05-31T10:07:44.545Z,6.10
2019-05-31T10:08:45.725Z,7.10
2019-05-31T10:09:44.489Z,6.50
2019-05-31T10:10:44.363Z,6.90
2019-05-31T10:11:44.348Z,6.00
2019-05-31T10:12:44.314Z,7.00
2019-05-31T10:13:44.384Z,5.30
2019-05-31T10:14:44.267Z,8.90
2019-05-31T10:15:44.293Z,9.40
2019-05-31T10:16:44.289Z,6.20
2019-05-31T10:17:44.493Z,7.20
2019-05-31T10:18:44.166Z,7.00
2019-05-31T10:19:44.207Z,7.40
2019-05-31T10:20:44.121Z,4.90
2019-05-31T10:21:44.128Z,4.90
2019-05-31T10:22:44.196Z,5.00
2019-05-31T10:23:54.241Z,5.50
2019-05-31T10:24:44.020Z,5.70
2019-05-31T10:25:45.477Z,5.20
2019-05-31T10:26:43.965Z,6.40
2019-05-31T10:27:44.103Z,4.90
2019-05-31T10:28:43.913Z,5.20
2019-05-31T10:29:43.973Z,8.00
2019-05-31T10:30:43.877Z,6.90
2019-05-31T10:31:43.877Z,7.50
2019-05-31T10:32:44.423Z,4.30
2019-05-31T10:33:43.946Z,3.10
2019-05-31T10:34:44.081Z,5.70
2019-05-31T10:35:44.147Z,3.90
2019-05-31T10:36:43.959Z,3.30
2019-05-31T10:37:44.436Z,4.80
2019-05-31T10:38:44.064Z,5.30
2019-05-31T10:39:44.521Z,5.20
2019-05-31T10:40:44.034Z,4.30
2019-05-31T10:41:44.134Z,4.20
2019-05-31T10:42:44.484Z,3.80
2019-05-31T10:43:44.305Z,5.10
2019-05-31T10:44:44.392Z,6.10
2019-05-31T10:45:44.247Z,2.50
2019-05-31T10:46:44.244Z,5.30
2019-05-31T10:47:44.616Z,3.50
2019-05-31T10:48:44.606Z,6.50
2019-05-31T10:49:44.355Z,4.50
2019-05-31T10:50:56.018Z,3.50
2019-05-31T10:51:44.493Z,4.60
2019-05-31T10:52:44.550Z,4.40
2019-05-31T10:53:44.415Z,4.50
2019-05-31T10:54:47.395Z,4.10
2019-05-31T10:55:44.251Z,5.00
2019-05-31T10:56:44.408Z,4.10
2019-05-31T10:57:44.430Z,4.10
2019-05-31T10:58:44.528Z,2.40
2019-05-31T10:59:44.467Z,4.30
2019-05-31T11:00:44.313Z,2.90
2019-05-31T11:01:45.463Z,3.80
2019-05-31T11:02:43.047Z,5.80
2019-05-31T11:03:43.026Z,4.70
2019-05-31T11:04:43.008Z,3.50
2019-05-31T11:05:44.076Z,7.30
2019-05-31T11:06:43.243Z,3.80
2019-05-31T11:07:42.982Z,4.60
2019-05-31T11:08:43.348Z,7.30
2019-05-31T11:09:43.075Z,6.20
2019-05-31T11:10:43.397Z,2.80
2019-05-31T11:11:44.747Z,3.70
2019-05-31T11:12:43.260Z,3.30
2019-05-31T11:13:43.269Z,5.10
2019-05-31T11:14:43.613Z,3.00
2019-05-31T11:15:46.494Z,4.80
2019-05-31T11:16:43.753Z,4.90
2019-05-31T11:17:49.692Z,3.30
2019-05-31T11:18:43.820Z,6.10
2019-05-31T11:19:59.131Z,4.60
2019-05-31T11:20:43.615Z,5.00
2019-05-31T11:21:43.656Z,3.60
2019-05-31T11:22:44.125Z,5.00
2019-05-31T11:23:43.891Z,4.80
2019-05-31T11:24:43.022Z,3.70
2019-05-31T11:25:42.487Z,4.30
2019-05-31T11:26:44.698Z,5.60
2019-05-31T11:27:42.494Z,6.00
2019-05-31T11:28:42.592Z,4.10
2019-05-31T11:29:50.207Z,2.60
2019-05-31T11:30:42.349Z,2.50
2019-05-31T11:31:42.437Z,3.20
2019-05-31T11:32:49.648Z,3.80
2019-05-31T11:33:48.144Z,2.80
2019-05-31T11:34:42.615Z,4.70
2019-05-31T11:35:43.982Z,2.40
2019-05-31T11:36:42.266Z,3.70
2019-05-31T11:37:43.829Z,3.40
2019-05-31T11:38:42.822Z,1.50
2019-05-31T11:39:43.377Z,2.40
2019-05-31T11:40:42.964Z,4.80
2019-05-31T11:41:43.171Z,2.30
2019-05-31T11:43:42.672Z,2.30
2019-05-31T11:44:43.630Z,3.00
2019-05-31T11:45:44.084Z,3.50
2019-05-31T11:46:43.927Z,3.60
2019-05-31T11:47:46.431Z,3.40
2019-05-31T11:48:43.016Z,2.50
2019-05-31T11:49:43.231Z,4.10
2019-05-31T11:50:43.199Z,2.60
2019-05-31T11:51:42.986Z,2.30
2019-05-31T11:52:43.094Z,2.60
2019-05-31T11:53:46.239Z,2.80
2019-05-31T11:55:12.616Z,2.60
2019-05-31T11:55:41.731Z,2.40
2019-05-31T11:56:43.997Z,2.90
2019-05-31T11:57:41.854Z,2.00
2019-05-31T11:58:41.655Z,1.80
2019-05-31T11:59:43.080Z,1.70
2019-05-31T12:00:42.640Z,2.90
2019-05-31T12:01:43.142Z,2.60
2019-05-31T12:02:42.290Z,3.10
2019-05-31T12:03:41.794Z,1.60
2019-05-31T12:04:42.173Z,3.20
2019-05-31T12:05:42.096Z,2.70
2019-05-31T12:06:42.006Z,1.40
2019-05-31T12:07:42.305Z,3.20
2019-05-31T12:08:42.311Z,2.10
2019-05-31T12:09:42.986Z,1.80
2019-05-31T12:10:42.698Z,1.80
2019-05-31T12:11:42.310Z,3.30
2019-05-31T12:12:43.577Z,2.60
2019-05-31T12:13:42.348Z,2.20
2019-05-31T12:14:42.930Z,1.90
2019-05-31T12:15:42.653Z,2.90
2019-05-31T12:16:42.461Z,3.20
2019-05-31T12:17:42.490Z,3.20
2019-05-31T12:18:43.024Z,2.50
2019-05-31T12:19:42.398Z,4.00
2019-05-31T12:20:42.486Z,4.10
2019-05-31T12:20:59.497Z,2.60
2019-05-31T12:21:51.290Z,2.30
2019-05-31T12:22:42.136Z,2.00
2019-05-31T12:23:42.624Z,2.30
2019-05-31T12:24:41.240Z,3.20
2019-05-31T12:25:41.077Z,3.20
2019-05-31T12:26:41.778Z,4.90
2019-05-31T12:27:40.938Z,2.10
2019-05-31T12:28:40.955Z,2.70
2019-05-31T12:29:41.636Z,2.50
2019-05-31T12:30:41.703Z,3.80
2019-05-31T12:31:41.834Z,3.10
2019-05-31T12:32:42.251Z,1.90
2019-05-31T12:33:41.953Z,1.90
2019-05-31T12:34:41.950Z,3.10
2019-05-31T12:35:42.030Z,2.10
2019-05-31T12:36:42.237Z,3.00
2019-05-31T12:37:40.743Z,2.50
2019-05-31T12:38:41.732Z,2.00
2019-05-31T12:39:43.018Z,3.10
2019-05-31T12:40:47.850Z,2.00
2019-05-31T12:41:41.568Z,2.70
2019-05-31T12:42:41.983Z,3.30
2019-05-31T12:43:41.849Z,1.80
2019-05-31T12:44:40.844Z,3.90
2019-05-31T12:45:41.750Z,2.30
2019-05-31T12:46:40.789Z,2.80
2019-05-31T12:47:45.291Z,2.70
2019-05-31T12:48:40.968Z,2.30
2019-05-31T12:49:40.541Z,3.10
2019-05-31T12:50:40.902Z,1.70
2019-05-31T12:51:40.348Z,2.20
2019-05-31T12:52:41.357Z,5.20
2019-05-31T12:53:40.327Z,3.30
2019-05-31T12:54:41.557Z,4.00
2019-05-31T12:55:40.798Z,6.10
2019-05-31T12:56:41.529Z,3.40
2019-05-31T12:57:40.792Z,3.30
2019-05-31T12:58:40.713Z,1.90
2019-05-31T12:59:41.087Z,1.90
2019-05-31T13:00:40.957Z,2.40
2019-05-31T13:01:41.337Z,4.20
2019-05-31T13:02:41.503Z,4.10
2019-05-31T13:03:41.548Z,4.30
2019-05-31T13:04:41.536Z,2.90
2019-05-31T13:05:41.361Z,1.80
2019-05-31T13:06:41.724Z,4.30
2019-05-31T13:07:39.969Z,3.10
2019-05-31T13:08:40.232Z,3.30
2019-05-31T13:09:39.923Z,2.10
2019-05-31T13:10:40.104Z,4.20
2019-05-31T13:11:39.869Z,3.60
2019-05-31T13:12:39.919Z,2.90
2019-05-31T13:13:39.824Z,2.50
2019-05-31T13:14:39.847Z,2.20
2019-05-31T13:15:39.783Z,2.40
2019-05-31T13:16:39.826Z,3.00
2019-05-31T13:17:39.744Z,1.90
2019-05-31T13:18:39.748Z,3.30
2019-05-31T13:19:39.719Z,2.10
2019-05-31T13:20:39.775Z,2.00
2019-05-31T13:21:39.624Z,2.40
2019-05-31T13:22:39.680Z,3.70
2019-05-31T13:23:39.583Z,4.00
2019-05-31T13:24:39.608Z,2.50
2019-05-31T13:25:39.529Z,2.00
2019-05-31T13:26:39.603Z,3.00
2019-05-31T13:27:39.474Z,2.10
2019-05-31T13:28:39.466Z,4.30
2019-05-31T13:29:39.523Z,3.90
2019-05-31T13:30:39.409Z,2.90
2019-05-31T13:31:39.431Z,2.10
2019-05-31T13:32:39.362Z,3.10
2019-05-31T13:33:39.443Z,2.10
2019-05-31T13:34:39.303Z,1.90
2019-05-31T13:35:40.399Z,2.00
2019-05-31T13:36:39.833Z,2.40
2019-05-31T13:37:39.269Z,2.80
2019-05-31T13:38:39.210Z,2.60
2019-05-31T13:39:39.288Z,3.20
2019-05-31T13:40:39.161Z,5.10
2019-05-31T13:41:39.257Z,2.60
2019-05-31T13:42:39.114Z,4.00
2019-05-31T13:43:39.111Z,2.10
2019-05-31T13:44:39.061Z,3.10
2019-05-31T13:45:39.113Z,2.20
2019-05-31T13:46:39.017Z,2.40
2019-05-31T13:47:39.044Z,2.40
2019-05-31T13:48:38.968Z,2.00
2019-05-31T13:49:38.962Z,2.20
2019-05-31T13:50:38.947Z,2.50
2019-05-31T13:51:38.914Z,3.00
2019-05-31T13:52:41.506Z,2.80
2019-05-31T13:53:38.845Z,3.30
2019-05-31T13:54:38.822Z,2.60
2019-05-31T13:55:38.795Z,4.80
2019-05-31T13:56:38.882Z,4.70
2019-05-31T13:57:38.750Z,1.80
2019-05-31T13:58:39.824Z,3.60
2019-05-31T13:59:38.706Z,3.10
2019-05-31T14:00:38.687Z,3.40
2019-05-31T14:01:38.648Z,2.20
2019-05-31T14:02:38.719Z,2.50
2019-05-31T14:03:38.603Z,3.20
2019-05-31T14:04:53.867Z,2.50
2019-05-31T14:05:38.553Z,2.10
2019-05-31T14:06:38.542Z,3.10
2019-05-31T14:07:38.536Z,2.70
2019-05-31T14:08:38.488Z,3.50
2019-05-31T14:09:38.465Z,2.20
2019-05-31T14:10:38.479Z,2.50
2019-05-31T14:11:38.407Z,3.90
2019-05-31T14:12:38.789Z,4.60
2019-05-31T14:13:38.399Z,2.30
2019-05-31T14:14:38.335Z,1.80
2019-05-31T14:15:38.309Z,2.30
2019-05-31T14:16:38.416Z,3.20
2019-05-31T14:17:38.262Z,2.90
2019-05-31T14:18:38.241Z,2.00
2019-05-31T14:19:42.649Z,2.90
2019-05-31T14:20:38.185Z,2.00
2019-05-31T14:21:39.261Z,3.10
2019-05-31T14:22:38.146Z,2.80
2019-05-31T14:23:38.148Z,2.50
2019-05-31T14:24:38.098Z,3.40
2019-05-31T14:25:39.186Z,3.60
2019-05-31T14:26:38.051Z,1.80
2019-05-31T14:27:38.026Z,2.60
2019-05-31T14:28:38.133Z,1.70
2019-05-31T14:29:37.977Z,1.80
2019-05-31T14:30:37.950Z,3.10
2019-05-31T14:31:37.930Z,1.60
2019-05-31T14:32:37.986Z,3.10
2019-05-31T14:33:37.876Z,3.80
2019-05-31T14:34:37.963Z,2.30
2019-05-31T14:35:37.852Z,1.70
2019-05-31T14:36:37.816Z,2.50
2019-05-31T14:37:37.882Z,2.20
2019-05-31T14:38:37.758Z,3.10
2019-05-31T14:39:37.795Z,2.10
2019-05-31T14:40:37.720Z,2.90
2019-05-31T14:41:37.693Z,2.10
2019-05-31T14:42:37.663Z,3.30
2019-05-31T14:43:37.647Z,6.10
2019-05-31T14:44:37.614Z,2.20
2019-05-31T14:45:37.591Z,2.60
2019-05-31T14:46:37.601Z,2.10
2019-05-31T14:47:37.550Z,1.60
2019-05-31T14:48:37.513Z,1.70
2019-05-31T14:49:37.548Z,2.00
2019-05-31T14:50:37.529Z,2.10
2019-05-31T14:51:38.490Z,2.50
2019-05-31T14:52:37.429Z,2.90
2019-05-31T14:53:37.485Z,1.80
2019-05-31T14:54:37.375Z,1.70
2019-05-31T14:55:37.349Z,2.70
2019-05-31T14:56:37.413Z,1.50
2019-05-31T14:57:37.308Z,2.30
2019-05-31T14:58:38.346Z,1.70
2019-05-31T14:59:37.253Z,2.30
2019-05-31T15:00:37.338Z,2.90
2019-05-31T15:01:37.199Z,3.10
2019-05-31T15:02:38.271Z,2.40
2019-05-31T15:03:37.154Z,2.70
2019-05-31T15:04:38.123Z,5.40
2019-05-31T15:05:37.108Z,2.00
2019-05-31T15:06:37.086Z,1.70
2019-05-31T15:07:37.057Z,1.70
2019-05-31T15:08:37.096Z,1.90
2019-05-31T15:09:37.013Z,2.70
2019-05-31T15:10:36.990Z,2.50
2019-05-31T15:11:39.655Z,2.50
2019-05-31T15:12:36.947Z,1.80
2019-05-31T15:13:36.914Z,1.60
2019-05-31T15:14:37.004Z,2.10
2019-05-31T15:15:36.869Z,2.20
2019-05-31T15:16:36.851Z,2.20
2019-05-31T15:17:36.842Z,2.10
2019-05-31T15:18:36.797Z,3.00
2019-05-31T15:19:36.856Z,2.50
2019-05-31T15:20:36.756Z,2.00
2019-05-31T15:21:36.782Z,2.40
2019-05-31T15:22:36.702Z,1.30
2019-05-31T15:23:36.792Z,2.10
2019-05-31T15:24:36.673Z,1.40
2019-05-31T15:25:36.637Z,1.70
2019-05-31T15:26:36.606Z,2.30
2019-05-31T15:27:36.596Z,2.30
2019-05-31T15:28:36.606Z,4.20
2019-05-31T15:29:36.537Z,4.40
2019-05-31T15:30:36.511Z,2.10
2019-05-31T15:31:36.490Z,2.60
2019-05-31T15:32:40.259Z,1.60
2019-05-31T15:33:36.444Z,1.40
2019-05-31T15:34:36.419Z,1.70
2019-05-31T15:35:36.399Z,1.40
2019-05-31T15:36:37.427Z,2.80
2019-05-31T15:37:36.354Z,1.90
2019-05-31T15:38:49.966Z,3.10
2019-05-31T15:39:36.432Z,2.00
2019-05-31T15:40:37.358Z,1.50
2019-05-31T15:41:36.259Z,2.00
2019-05-31T15:42:37.261Z,2.70
2019-05-31T15:43:36.194Z,2.80
2019-05-31T15:44:38.190Z,1.80
2019-05-31T15:45:36.159Z,1.60
2019-05-31T15:46:59.553Z,2.10
2019-05-31T15:47:36.103Z,1.40
2019-05-31T15:48:43.042Z,1.40